Airfield :
LOGIN :

Register | Disclaimer

   EN    FR    IT 

 










Legend :    VFR   Marginal VFR   IFR   Intensive IFR   Very Intensive IFR
Visi :
Ceiling :
>= 8 km
>= 3000ft
5 to 8 km
1000 to 3000 ft
1500m to 5 km
500 to 1000 ft
800 to 1500m
200 to 500 ft
< 800m
< 200 ft
Symbols :   Thunderstorms  Fog  Heavy snow  Heavy precipitations  Wind > 20 kt
SIGMETs :     Misc.  Thunderstorms  Icing  Turbulence  Mountain Waves  Volcanic Ashes






- Airport Elevation : 1455 ft


ETIH - Hohenfels Army Air Field

CURRENT METAR :
  • 101319Z AUTO 06004KT 9999 SCT075 20/03 A3021 RMK AO2 RAB02E19 SLP230 $

EXPIRED METARs :
  • 101302Z AUTO 35006KT 9999 -RA BKN075 19/03 A3021 RMK AO2 RAB02 SLP232 $
  • 101256Z AUTO 35006KT 9999 BKN075 20/03 A3021 RMK AO2 RAB05E06RAB10E12 SLP232 P0000 T01950032 $
  • 101212Z AUTO 24004KT 9999 FEW065 20/05 A3023 RMK AO2 RAB05E06RAB10E12 SLP237 $
  • 101156Z AUTO 28003KT 9999 FEW080 20/04 A3023 RMK AO2 RAB08E18RAB31E34RAB38E48 SLP237 P0000 60000 T01970042 10198 20062 57014 $
  • 101138Z AUTO 08003KT 9999 -RA FEW075 19/05 A3024 RMK AO2 RAB08E18RAB31E34RAB38 SLP243 $
  • 101134Z AUTO 07004KT 9999 FEW065 19/05 A3024 RMK AO2 RAB08E18RAB31E34 SLP243 $
  • 101118Z AUTO 08003KT 9999 SCT060 SCT075 19/04 A3025 RMK AO2 RAB08E18 SLP244 $
  • 101108Z AUTO 00000KT 9999 -RA BKN060 19/06 A3025 RMK AO2 RAB08 SLP246 $
  • 101056Z AUTO 26005KT 9999 SCT060 19/05 A3025 RMK AO2 RAB44E53 SLP244 P0000 T01930054 $
  • 101044Z AUTO 09006KT 9999 -RA FEW065 19/05 A3025 RMK AO2 RAB44 SLP244 $

Expired Forecast.



MET'MAP, your aeronautical weather chart ! - Copyright ORBIFLY December 2007 - Disclaimer

ORBIFLY MET'MAP TEAM :

Programming & Development : Alexandra Zaïnal
Concept & original design : Baudouin d'Aumeries
Assistance for programming : Marc-Olivier Méhu
Technical & hardware support : Manuel Goepfert

Contact : metmap@orbifly.com




SOURCES & CREDITS :

   NOAA